LPE2112 SPJC-SPQU
Flight info
| Callsign | LPE2112 |
|---|---|
| Flight time | N/A |
| Altitude | 36000 |
| Route | PAKOL5 AKSOL UT222 ASUPA ASUP1B |
| Aircraft | A320/M-SDFGHIRWY/LB1 |
Departure
| Time | 2026-05-04 22:22 |
|---|---|
| Airport | Jorge Chávez International Airport (SPJC) |
Arrival
| Time | N/A |
|---|---|
| Airport | Rodríguez Ballón International Airport (SPQU) |
| Time | Latitude | Longitude | Altitude | Speed | Heading |
|---|---|---|---|---|---|
| 2026-05-04 22:10 | -12.02517 | -77.11663 | 129 ft | 0 kts | 340° |
| 2026-05-04 22:13 | -12.02517 | -77.11664 | 128 ft | 0 kts | 340° |
| 2026-05-04 22:13 | -12.02472 | -77.11681 | 128 ft | 13 kts | 337° |
| 2026-05-04 22:14 | -12.02374 | -77.11688 | 129 ft | 18 kts | 67° |
| 2026-05-04 22:14 | -12.02283 | -77.11641 | 129 ft | 17 kts | 340° |
| 2026-05-04 22:14 | -12.02173 | -77.11694 | 129 ft | 19 kts | 333° |
| 2026-05-04 22:14 | -12.02040 | -77.11762 | 129 ft | 23 kts | 333° |
| 2026-05-04 22:15 | -12.01941 | -77.11832 | 129 ft | 13 kts | 267° |
| 2026-05-04 22:15 | -12.01989 | -77.11956 | 128 ft | 30 kts | 243° |
| 2026-05-04 22:15 | -12.02099 | -77.12180 | 128 ft | 38 kts | 244° |
| 2026-05-04 22:15 | -12.02203 | -77.12401 | 128 ft | 25 kts | 249° |
| 2026-05-04 22:16 | -12.02124 | -77.12477 | 128 ft | 17 kts | 333° |
| 2026-05-04 22:16 | -12.01995 | -77.12542 | 128 ft | 22 kts | 335° |
| 2026-05-04 22:16 | -12.01844 | -77.12611 | 128 ft | 25 kts | 333° |
| 2026-05-04 22:16 | -12.01681 | -77.12696 | 128 ft | 27 kts | 333° |
| 2026-05-04 22:17 | -12.01506 | -77.12785 | 128 ft | 29 kts | 334° |
| 2026-05-04 22:17 | -12.01318 | -77.12878 | 128 ft | 30 kts | 334° |
| 2026-05-04 22:17 | -12.01166 | -77.12949 | 128 ft | 18 kts | 301° |
| 2026-05-04 22:17 | -12.01170 | -77.13008 | 128 ft | 0 kts | 250° |
| 2026-05-04 22:21 | -12.01179 | -77.13031 | 127 ft | 10 kts | 247° |
| 2026-05-04 22:21 | -12.01239 | -77.13089 | 127 ft | 11 kts | 186° |
| 2026-05-04 22:21 | -12.01269 | -77.13084 | 128 ft | 0 kts | 162° |
| 2026-05-04 22:21 | -12.01329 | -77.13058 | 128 ft | 35 kts | 153° |
| 2026-05-04 22:22 | -12.01759 | -77.12844 | 128 ft | 99 kts | 154° |
| 2026-05-04 22:22 | -12.02530 | -77.12462 | 128 ft | 152 kts | 154° |
| 2026-05-04 22:22 | -12.03599 | -77.11927 | 237 ft | 185 kts | 154° |
| 2026-05-04 22:22 | -12.04763 | -77.11339 | 746 ft | 188 kts | 153° |
| 2026-05-04 22:23 | -12.05853 | -77.10715 | 1447 ft | 184 kts | 149° |
| 2026-05-04 22:23 | -12.06919 | -77.10060 | 2046 ft | 185 kts | 148° |
| 2026-05-04 22:23 | -12.08060 | -77.09360 | 2404 ft | 201 kts | 148° |
| 2026-05-04 22:23 | -12.09314 | -77.08598 | 2750 ft | 217 kts | 148° |
| 2026-05-04 22:24 | -12.10645 | -77.07796 | 3042 ft | 237 kts | 148° |
| 2026-05-04 22:24 | -12.12131 | -77.06906 | 3387 ft | 256 kts | 148° |
| 2026-05-04 22:24 | -12.13698 | -77.05969 | 3821 ft | 272 kts | 149° |
| 2026-05-04 22:24 | -12.15349 | -77.04987 | 4491 ft | 277 kts | 149° |
| 2026-05-04 22:25 | -12.17065 | -77.04076 | 5188 ft | 281 kts | 153° |
| 2026-05-04 22:25 | -12.18815 | -77.03209 | 5876 ft | 284 kts | 153° |
| 2026-05-04 22:25 | -12.20563 | -77.02351 | 6497 ft | 289 kts | 153° |
| 2026-05-04 22:25 | -12.22369 | -77.01461 | 7127 ft | 292 kts | 152° |
| 2026-05-04 22:26 | -12.24058 | -77.00310 | 7746 ft | 293 kts | 134° |
| 2026-05-04 22:26 | -12.25242 | -76.98657 | 8381 ft | 293 kts | 116° |
| 2026-05-04 22:26 | -12.26153 | -76.96777 | 8907 ft | 295 kts | 114° |
| 2026-05-04 22:26 | -12.27019 | -76.94900 | 9439 ft | 298 kts | 114° |
| 2026-05-04 22:27 | -12.27919 | -76.92966 | 9934 ft | 301 kts | 114° |
| 2026-05-04 22:27 | -12.28824 | -76.91045 | 10448 ft | 305 kts | 114° |
| 2026-05-04 22:27 | -12.29765 | -76.89068 | 10685 ft | 318 kts | 115° |
| 2026-05-04 22:27 | -12.30761 | -76.86989 | 10993 ft | 330 kts | 115° |
| 2026-05-04 22:28 | -12.31782 | -76.84865 | 11419 ft | 335 kts | 115° |
| 2026-05-04 22:28 | -12.32799 | -76.82752 | 11848 ft | 336 kts | 115° |
| 2026-05-04 22:28 | -12.33823 | -76.80629 | 12368 ft | 337 kts | 115° |
| 2026-05-04 22:28 | -12.34864 | -76.78471 | 12719 ft | 339 kts | 115° |
| 2026-05-04 22:29 | -12.35911 | -76.76299 | 13156 ft | 340 kts | 115° |
| 2026-05-04 22:29 | -12.36952 | -76.74140 | 13621 ft | 341 kts | 115° |
| 2026-05-04 22:29 | -12.38010 | -76.71948 | 14060 ft | 343 kts | 115° |
| 2026-05-04 22:29 | -12.39062 | -76.69766 | 14510 ft | 344 kts | 115° |
| 2026-05-04 22:30 | -12.40118 | -76.67569 | 14812 ft | 346 kts | 115° |
| 2026-05-04 22:30 | -12.41184 | -76.65354 | 15129 ft | 348 kts | 115° |
| 2026-05-04 22:30 | -12.42240 | -76.63158 | 15589 ft | 349 kts | 115° |
| 2026-05-04 22:30 | -12.43312 | -76.60941 | 16004 ft | 351 kts | 115° |
| 2026-05-04 22:31 | -12.44405 | -76.58688 | 16376 ft | 353 kts | 115° |
| 2026-05-04 22:31 | -12.45498 | -76.56437 | 16722 ft | 355 kts | 115° |
| 2026-05-04 22:31 | -12.46599 | -76.54169 | 17076 ft | 356 kts | 115° |
| 2026-05-04 22:31 | -12.47693 | -76.51910 | 17464 ft | 357 kts | 115° |
| 2026-05-04 22:32 | -12.48782 | -76.49661 | 17845 ft | 358 kts | 115° |
| 2026-05-04 22:32 | -12.49896 | -76.47360 | 18173 ft | 360 kts | 115° |
| 2026-05-04 22:32 | -12.51008 | -76.45062 | 18549 ft | 361 kts | 115° |
| 2026-05-04 22:32 | -12.52130 | -76.42742 | 18872 ft | 363 kts | 115° |
| 2026-05-04 22:33 | -12.53246 | -76.40436 | 19227 ft | 365 kts | 115° |
| 2026-05-04 22:33 | -12.54382 | -76.38089 | 19584 ft | 366 kts | 115° |
| 2026-05-04 22:33 | -12.55495 | -76.35785 | 19911 ft | 368 kts | 115° |
| 2026-05-04 22:33 | -12.56649 | -76.33399 | 20241 ft | 370 kts | 115° |
| 2026-05-04 22:34 | -12.57780 | -76.31060 | 20588 ft | 372 kts | 115° |
| 2026-05-04 22:34 | -12.58926 | -76.28687 | 20886 ft | 373 kts | 115° |
| 2026-05-04 22:34 | -12.60078 | -76.26304 | 21215 ft | 375 kts | 115° |
| 2026-05-04 22:34 | -12.61242 | -76.23891 | 21525 ft | 376 kts | 115° |
| 2026-05-04 22:35 | -12.62385 | -76.21526 | 21825 ft | 378 kts | 115° |
| 2026-05-04 22:35 | -12.63552 | -76.19108 | 22120 ft | 379 kts | 115° |
| 2026-05-04 22:35 | -12.64728 | -76.16672 | 22420 ft | 380 kts | 115° |
| 2026-05-04 22:35 | -12.65889 | -76.14265 | 22714 ft | 382 kts | 115° |
| 2026-05-04 22:36 | -12.67077 | -76.11804 | 22994 ft | 383 kts | 115° |
| 2026-05-04 22:36 | -12.68251 | -76.09368 | 23246 ft | 386 kts | 114° |
| 2026-05-04 22:36 | -12.69436 | -76.06907 | 23486 ft | 388 kts | 114° |
| 2026-05-04 22:36 | -12.70631 | -76.04425 | 23736 ft | 390 kts | 115° |
| 2026-05-04 22:37 | -12.71829 | -76.01939 | 23996 ft | 392 kts | 114° |
| 2026-05-04 22:37 | -12.73048 | -75.99437 | 24236 ft | 394 kts | 117° |
| 2026-05-04 22:37 | -12.74686 | -75.97188 | 24419 ft | 400 kts | 135° |
| 2026-05-04 22:37 | -12.76956 | -75.95525 | 24660 ft | 404 kts | 153° |
| 2026-05-04 22:38 | -12.79597 | -75.94490 | 24939 ft | 406 kts | 160° |
| 2026-05-04 22:38 | -12.82303 | -75.93593 | 25161 ft | 408 kts | 161° |
| 2026-05-04 22:38 | -12.85023 | -75.92696 | 25353 ft | 411 kts | 161° |
| 2026-05-04 22:38 | -12.87741 | -75.91787 | 25554 ft | 414 kts | 161° |
| 2026-05-04 22:39 | -12.90506 | -75.90853 | 25781 ft | 416 kts | 160° |
| 2026-05-04 22:39 | -12.93234 | -75.89925 | 26002 ft | 418 kts | 160° |
| 2026-05-04 22:39 | -12.96039 | -75.88966 | 26214 ft | 420 kts | 160° |
| 2026-05-04 22:39 | -12.98803 | -75.88017 | 26447 ft | 421 kts | 160° |
| 2026-05-04 22:40 | -13.01575 | -75.87066 | 26666 ft | 423 kts | 160° |
| 2026-05-04 22:40 | -13.04378 | -75.86102 | 26878 ft | 425 kts | 160° |
| 2026-05-04 22:40 | -13.07189 | -75.85136 | 27083 ft | 427 kts | 160° |
| 2026-05-04 22:40 | -13.10043 | -75.84155 | 27302 ft | 429 kts | 161° |
| 2026-05-04 22:41 | -13.12879 | -75.83179 | 27509 ft | 431 kts | 161° |
| 2026-05-04 22:41 | -13.15715 | -75.82204 | 27702 ft | 433 kts | 161° |
| 2026-05-04 22:41 | -13.18578 | -75.81219 | 27889 ft | 435 kts | 160° |
| 2026-05-04 22:41 | -13.21429 | -75.80238 | 28079 ft | 437 kts | 161° |
| 2026-05-04 22:42 | -13.24343 | -75.79235 | 28284 ft | 438 kts | 161° |
| 2026-05-04 22:42 | -13.27225 | -75.78243 | 28467 ft | 440 kts | 161° |
| 2026-05-04 22:42 | -13.30119 | -75.77187 | 28723 ft | 439 kts | 156° |
| 2026-05-04 22:42 | -13.32777 | -75.75773 | 29022 ft | 436 kts | 146° |
| 2026-05-04 22:43 | -13.35222 | -75.73892 | 29224 ft | 436 kts | 136° |
| 2026-05-04 22:43 | -13.37326 | -75.71742 | 29401 ft | 436 kts | 131° |
| 2026-05-04 22:43 | -13.39336 | -75.69524 | 29590 ft | 438 kts | 131° |
| 2026-05-04 22:43 | -13.41427 | -75.67197 | 29774 ft | 439 kts | 131° |
| 2026-05-04 22:44 | -13.43475 | -75.64933 | 29925 ft | 442 kts | 131° |
| 2026-05-04 22:44 | -13.45503 | -75.62708 | 30094 ft | 443 kts | 131° |
| 2026-05-04 22:44 | -13.47636 | -75.60383 | 30290 ft | 444 kts | 131° |
| 2026-05-04 22:44 | -13.49721 | -75.58115 | 30457 ft | 446 kts | 131° |
| 2026-05-04 22:45 | -13.51780 | -75.55877 | 30602 ft | 448 kts | 131° |
| 2026-05-04 22:45 | -13.56014 | -75.51277 | 30942 ft | 450 kts | 131° |
| 2026-05-04 22:45 | -13.57804 | -75.49331 | 31074 ft | 452 kts | 131° |